Sorrento, Louisiana
Current Conditions -  °F | °C
As of 11:55 AM on Tuesday 21 Oct 2014 (Local Time) from KL38 Reporting Station
Clear Clear  
Wind Chill: 76°   Ceiling: Unl
Heat Index: 76°   Visibility: 10mi
Dew Point: 55°   Wind: 6mph
Humidity: 48%   Direction: 40°NE
Pressure: 30.06"   Gusts: NA
Location:  30.18°N, 90.86°W
Report Text: KL38 211655Z AUTO 04005KT 10SM CLR 24/13 A3006 RMK AO2 T02440126
Loading
Personal Weather Stations






























Interactive Weather Map
Tropical Storm Tracking
New forecast layout! Learn more

10-Day Weather Forecast

Advertisements
Track Severe Weather on mobile